createdAt,value
2023-04-22T00:01:13.237Z,72.40
2023-04-22T00:03:42.257Z,72.40
2023-04-22T00:06:09.427Z,72.40
2023-04-22T00:08:36.239Z,72.50
2023-04-22T00:11:03.521Z,72.50
2023-04-22T00:13:30.432Z,72.60
2023-04-22T00:15:57.629Z,72.60
2023-04-22T00:18:24.528Z,72.60
2023-04-22T00:20:51.594Z,72.70
2023-04-22T00:23:18.339Z,72.80
2023-04-22T00:25:45.214Z,72.80
2023-04-22T00:28:12.022Z,73.60
2023-04-22T00:30:38.861Z,72.80
2023-04-22T00:33:05.856Z,72.80
2023-04-22T00:35:32.778Z,72.90
2023-04-22T00:37:59.676Z,73.00
2023-04-22T00:40:27.656Z,73.10
2023-04-22T00:42:55.690Z,73.10
2023-04-22T00:45:23.008Z,73.10
2023-04-22T00:47:49.999Z,73.20
2023-04-22T00:50:16.983Z,73.30
2023-04-22T00:52:43.830Z,73.20
2023-04-22T00:55:11.559Z,73.20
2023-04-22T00:57:39.377Z,73.30
2023-04-22T01:00:07.077Z,73.40
2023-04-22T01:02:34.059Z,73.40
2023-04-22T01:05:01.233Z,73.40
2023-04-22T01:07:28.617Z,73.50
2023-04-22T01:09:55.699Z,73.60
2023-04-22T01:12:22.545Z,73.70
2023-04-22T01:14:49.489Z,73.70
2023-04-22T01:17:16.941Z,73.70
2023-04-22T01:19:44.475Z,73.70
2023-04-22T01:22:14.119Z,73.80
2023-04-22T01:24:41.755Z,73.90
2023-04-22T01:27:09.028Z,74.00
2023-04-22T01:29:38.549Z,73.90
2023-04-22T01:32:06.220Z,74.00
2023-04-22T01:34:33.639Z,73.90
2023-04-22T01:37:00.500Z,74.10
2023-04-22T01:39:27.730Z,74.10
2023-04-22T01:41:55.731Z,74.10
2023-04-22T01:44:22.875Z,74.20
2023-04-22T01:46:49.746Z,74.30
2023-04-22T01:49:16.750Z,74.30
2023-04-22T01:51:43.487Z,74.40
2023-04-22T01:54:10.643Z,74.50
2023-04-22T01:56:38.986Z,74.50
2023-04-22T01:59:06.053Z,74.60
2023-04-22T02:01:32.973Z,74.60
2023-04-22T02:03:59.898Z,74.70
2023-04-22T02:06:27.472Z,74.70
2023-04-22T02:08:54.277Z,74.70
2023-04-22T02:11:21.409Z,74.80
2023-04-22T02:13:48.165Z,75.00
2023-04-22T02:16:15.054Z,74.90
2023-04-22T02:18:41.963Z,74.90
2023-04-22T02:21:09.472Z,75.00
2023-04-22T02:23:37.682Z,75.10
2023-04-22T02:26:04.845Z,75.20
2023-04-22T02:28:32.143Z,75.30
2023-04-22T02:30:58.955Z,75.30
2023-04-22T02:33:25.850Z,75.40
2023-04-22T02:35:52.735Z,75.40
2023-04-22T02:38:20.014Z,75.40
2023-04-22T02:40:46.963Z,75.60
2023-04-22T02:43:14.224Z,75.60
2023-04-22T02:45:41.108Z,75.80
2023-04-22T02:48:08.292Z,75.80
2023-04-22T02:50:35.237Z,75.70
2023-04-22T02:53:02.051Z,75.80
2023-04-22T02:55:28.948Z,75.90
2023-04-22T02:57:55.902Z,75.90
2023-04-22T03:00:22.809Z,75.90
2023-04-22T03:02:49.798Z,76.00
2023-04-22T03:05:16.754Z,76.00
2023-04-22T03:07:44.605Z,76.00
2023-04-22T03:10:11.521Z,76.20
2023-04-22T03:12:38.234Z,76.20
2023-04-22T03:15:05.357Z,76.20
2023-04-22T03:17:32.122Z,76.30
2023-04-22T03:19:58.847Z,76.30
2023-04-22T03:22:25.737Z,76.30
2023-04-22T03:24:52.611Z,76.40
2023-04-22T03:27:19.363Z,76.50
2023-04-22T03:29:46.371Z,76.50
2023-04-22T03:32:13.470Z,76.50
2023-04-22T03:34:40.340Z,76.50
2023-04-22T03:37:07.144Z,76.60
2023-04-22T03:39:33.826Z,76.60
2023-04-22T03:42:01.534Z,76.60
2023-04-22T03:44:28.473Z,76.80
2023-04-22T03:46:55.296Z,76.80
2023-04-22T03:49:22.555Z,77.00
2023-04-22T03:51:49.421Z,76.90
2023-04-22T03:54:16.241Z,77.00
2023-04-22T03:56:43.079Z,77.10
2023-04-22T03:59:09.888Z,77.10
2023-04-22T04:01:36.912Z,77.10
2023-04-22T04:04:08.424Z,77.10
2023-04-22T04:06:35.551Z,77.10
2023-04-22T04:09:02.505Z,77.30
2023-04-22T04:11:29.391Z,77.20
2023-04-22T04:13:56.264Z,77.30
2023-04-22T04:16:26.188Z,77.30
2023-04-22T04:18:59.214Z,77.40
2023-04-22T04:21:26.865Z,77.50
2023-04-22T04:23:53.623Z,77.50
2023-04-22T04:26:20.523Z,77.30
2023-04-22T04:28:49.228Z,77.50
2023-04-22T04:31:16.065Z,77.50
2023-04-22T04:33:43.423Z,77.50
2023-04-22T04:36:11.264Z,77.50
2023-04-22T04:38:39.057Z,77.50
2023-04-22T04:41:06.091Z,77.50
2023-04-22T04:43:33.531Z,77.60
2023-04-22T04:46:00.987Z,77.60
2023-04-22T04:48:30.803Z,77.60
2023-04-22T04:50:58.926Z,77.70
2023-04-22T04:53:25.804Z,77.80
2023-04-22T04:55:58.682Z,77.80
2023-04-22T04:58:25.615Z,77.90
2023-04-22T05:00:52.466Z,77.80
2023-04-22T05:03:19.396Z,77.90
2023-04-22T05:05:48.417Z,77.90
2023-04-22T05:08:15.253Z,77.90
2023-04-22T05:10:42.732Z,77.90
2023-04-22T05:13:09.489Z,78.00
2023-04-22T05:15:36.389Z,78.00
2023-04-22T05:18:03.318Z,78.00
2023-04-22T05:20:35.358Z,78.20
2023-04-22T05:23:02.852Z,78.20
2023-04-22T05:25:29.738Z,78.20
2023-04-22T05:27:56.503Z,78.30
2023-04-22T05:30:25.669Z,78.40
2023-04-22T05:32:55.061Z,78.50
2023-04-22T05:35:22.031Z,78.50
2023-04-22T05:37:50.012Z,78.60
2023-04-22T05:40:16.846Z,78.60
2023-04-22T05:42:43.954Z,78.70
2023-04-22T05:45:14.007Z,78.70
2023-04-22T05:47:40.983Z,78.70
2023-04-22T05:50:08.270Z,78.70
2023-04-22T05:52:35.210Z,78.80
2023-04-22T05:55:02.073Z,78.80
2023-04-22T05:57:31.142Z,79.00
2023-04-22T05:59:58.952Z,79.00
2023-04-22T06:02:25.844Z,79.00
2023-04-22T06:04:53.080Z,79.00
2023-04-22T06:07:26.325Z,79.00
2023-04-22T06:10:02.145Z,79.10
2023-04-22T06:12:31.170Z,79.20
2023-04-22T06:15:00.863Z,79.20
2023-04-22T06:17:28.037Z,79.40
2023-04-22T06:19:55.046Z,79.50
2023-04-22T06:22:21.994Z,78.50
2023-04-22T06:24:48.723Z,78.50
2023-04-22T06:27:15.498Z,78.50
2023-04-22T06:29:42.354Z,78.60
2023-04-22T06:32:09.093Z,78.60
2023-04-22T06:34:41.856Z,78.50
2023-04-22T06:37:08.910Z,78.50
2023-04-22T06:39:35.769Z,78.50
2023-04-22T06:42:05.399Z,78.40
2023-04-22T06:44:32.589Z,78.30
2023-04-22T06:46:59.448Z,78.30
2023-04-22T06:49:26.295Z,78.40
2023-04-22T06:51:53.120Z,78.60
2023-04-22T06:54:20.086Z,78.70
2023-04-22T06:56:47.209Z,78.70
2023-04-22T06:59:14.020Z,78.50
2023-04-22T07:01:41.170Z,78.20
2023-04-22T07:04:08.049Z,78.30
2023-04-22T07:06:34.878Z,78.20
2023-04-22T07:09:03.795Z,77.70
2023-04-22T07:11:31.574Z,77.50
2023-04-22T07:13:58.531Z,77.40
2023-04-22T07:16:26.518Z,77.90
2023-04-22T07:18:53.363Z,77.90
2023-04-22T07:21:20.251Z,77.50
2023-04-22T07:23:47.066Z,77.30
2023-04-22T07:26:13.977Z,77.30
2023-04-22T07:28:40.901Z,77.30
2023-04-22T07:31:07.716Z,76.50
2023-04-22T07:33:37.230Z,75.70
2023-04-22T07:36:04.294Z,75.50
2023-04-22T07:38:31.130Z,74.10
2023-04-22T07:40:57.977Z,73.10
2023-04-22T07:43:24.987Z,72.60
2023-04-22T07:45:51.824Z,72.00
2023-04-22T07:48:18.726Z,70.90
2023-04-22T07:50:45.791Z,69.40
2023-04-22T07:53:13.536Z,68.50
2023-04-22T07:55:40.429Z,68.20
2023-04-22T07:58:07.349Z,67.40
2023-04-22T08:00:37.265Z,66.70
2023-04-22T08:03:04.705Z,65.90
2023-04-22T08:05:31.821Z,65.90
2023-04-22T08:07:58.602Z,66.00
2023-04-22T08:10:26.240Z,66.00
2023-04-22T08:12:53.275Z,66.20
2023-04-22T08:15:20.148Z,65.90
2023-04-22T08:17:47.228Z,66.20
2023-04-22T08:20:15.552Z,64.80
2023-04-22T08:22:45.699Z,64.30
2023-04-22T08:25:12.830Z,65.10
2023-04-22T08:27:39.738Z,65.80
2023-04-22T08:30:07.434Z,65.10
2023-04-22T08:32:34.562Z,65.10
2023-04-22T08:35:04.367Z,65.30
2023-04-22T08:37:32.339Z,65.70
2023-04-22T08:39:59.123Z,65.60
2023-04-22T08:42:27.581Z,65.40
2023-04-22T08:44:54.802Z,65.80
2023-04-22T08:47:22.501Z,64.50
2023-04-22T08:49:53.298Z,65.50
2023-04-22T08:52:21.206Z,65.80
2023-04-22T08:54:48.084Z,65.90
2023-04-22T08:57:16.482Z,65.30
2023-04-22T08:59:43.524Z,65.30
2023-04-22T09:02:17.934Z,66.20
2023-04-22T09:04:47.128Z,66.30
2023-04-22T09:07:22.330Z,65.00
2023-04-22T09:09:49.101Z,64.10
2023-04-22T09:12:17.911Z,65.20
2023-04-22T09:14:45.259Z,65.80
2023-04-22T09:17:16.815Z,65.20
2023-04-22T09:19:43.857Z,66.20
2023-04-22T09:22:14.824Z,64.50
2023-04-22T09:24:51.773Z,63.40
2023-04-22T09:27:19.653Z,63.00
2023-04-22T09:29:50.152Z,63.00
2023-04-22T09:32:17.553Z,62.70
2023-04-22T09:34:50.944Z,62.30
2023-04-22T09:37:21.319Z,61.90
2023-04-22T09:39:52.302Z,62.00
2023-04-22T09:42:19.907Z,62.10
2023-04-22T09:44:54.370Z,62.00
2023-04-22T09:47:25.931Z,62.30
2023-04-22T09:49:52.666Z,62.40
2023-04-22T09:52:28.122Z,61.90
2023-04-22T09:54:55.043Z,62.10
2023-04-22T09:57:22.401Z,61.70
2023-04-22T09:59:58.979Z,62.10
2023-04-22T10:04:53.720Z,61.80
2023-04-22T10:07:20.700Z,61.90
2023-04-22T10:09:47.887Z,61.60
2023-04-22T10:12:16.551Z,61.40
2023-04-22T10:14:43.797Z,61.20
2023-04-22T10:17:12.648Z,60.90
2023-04-22T10:22:07.607Z,60.90
2023-04-22T10:24:37.818Z,60.60
2023-04-22T10:27:10.676Z,59.80
2023-04-22T10:29:39.602Z,60.40
2023-04-22T10:32:27.683Z,60.60
2023-04-22T10:35:14.344Z,60.90
2023-04-22T10:37:48.284Z,60.70
2023-04-22T10:40:17.235Z,60.30
2023-04-22T10:42:50.846Z,60.40
2023-04-22T10:45:18.100Z,60.10
2023-04-22T10:47:46.551Z,61.20
2023-04-22T10:50:16.746Z,60.20
2023-04-22T10:52:47.677Z,60.20
2023-04-22T10:55:17.624Z,60.20
2023-04-22T10:57:47.077Z,60.60
2023-04-22T11:00:21.713Z,60.70
2023-04-22T11:03:12.886Z,60.80
2023-04-22T11:05:40.902Z,60.90
2023-04-22T11:08:28.391Z,61.10
2023-04-22T11:11:08.960Z,61.20
2023-04-22T11:13:36.103Z,61.00
2023-04-22T11:16:03.272Z,61.30
2023-04-22T11:18:32.161Z,61.30
2023-04-22T11:21:06.390Z,61.60
2023-04-22T11:23:33.275Z,61.70
2023-04-22T11:26:02.727Z,62.10
2023-04-22T11:28:29.796Z,62.60
2023-04-22T11:31:08.128Z,63.50
2023-04-22T11:33:35.464Z,64.10
2023-04-22T11:36:02.663Z,64.90
2023-04-22T11:38:29.464Z,65.40
2023-04-22T11:40:58.360Z,65.90
2023-04-22T11:43:25.198Z,66.40
2023-04-22T11:45:52.167Z,66.60
2023-04-22T11:48:19.023Z,66.80
2023-04-22T11:50:45.864Z,67.20
2023-04-22T11:53:24.272Z,67.40
2023-04-22T11:55:52.070Z,67.60
2023-04-22T11:58:24.325Z,68.00
2023-04-22T12:00:52.910Z,68.20
2023-04-22T12:03:21.050Z,68.30
2023-04-22T12:05:55.294Z,68.70
2023-04-22T12:08:49.344Z,69.00
2023-04-22T12:11:16.126Z,69.60
2023-04-22T12:13:44.305Z,70.60
2023-04-22T12:16:13.492Z,70.00
2023-04-22T12:18:54.531Z,70.20
2023-04-22T12:21:23.730Z,70.30
2023-04-22T12:23:52.645Z,70.40
2023-04-22T12:26:23.675Z,70.60
2023-04-22T12:28:52.747Z,70.60
2023-04-22T12:31:19.691Z,70.80
2023-04-22T12:33:46.866Z,70.90
2023-04-22T12:36:13.790Z,70.90
2023-04-22T12:38:40.730Z,71.10
2023-04-22T12:41:08.520Z,71.10
2023-04-22T12:43:36.941Z,71.20
2023-04-22T12:46:04.525Z,71.30
2023-04-22T12:48:31.718Z,71.50
2023-04-22T12:50:59.013Z,71.60
2023-04-22T12:53:30.826Z,71.50
2023-04-22T12:55:58.205Z,72.60
2023-04-22T12:58:26.192Z,71.90
2023-04-22T13:00:53.196Z,72.10
2023-04-22T13:03:20.166Z,72.30
2023-04-22T13:05:47.232Z,72.60
2023-04-22T13:08:14.149Z,72.80
2023-04-22T13:10:41.023Z,72.90
2023-04-22T13:15:39.129Z,73.10
2023-04-22T13:18:07.801Z,73.30
2023-04-22T13:20:37.710Z,73.50
2023-04-22T13:23:04.936Z,73.60
2023-04-22T13:25:32.180Z,73.60
2023-04-22T13:27:58.955Z,73.60
2023-04-22T13:30:25.857Z,73.90
2023-04-22T13:32:52.835Z,73.80
2023-04-22T13:35:19.763Z,74.00
2023-04-22T13:37:47.211Z,74.00
2023-04-22T13:40:14.255Z,74.10
2023-04-22T13:42:41.205Z,74.10
2023-04-22T13:45:08.644Z,74.10
2023-04-22T13:47:35.478Z,74.20
2023-04-22T13:50:02.326Z,74.20
2023-04-22T13:52:29.459Z,74.10
2023-04-22T13:54:56.257Z,74.00
2023-04-22T13:57:23.363Z,74.10
2023-04-22T13:59:50.666Z,74.20
2023-04-22T14:02:17.908Z,74.30
2023-04-22T14:04:47.481Z,74.20
2023-04-22T14:07:14.582Z,74.60
2023-04-22T14:09:41.737Z,74.60
2023-04-22T14:12:09.415Z,74.60
2023-04-22T14:14:36.291Z,74.60
2023-04-22T14:17:03.583Z,74.60
2023-04-22T14:19:31.771Z,74.70
2023-04-22T14:21:58.552Z,74.70
2023-04-22T14:24:28.465Z,74.90
2023-04-22T14:26:58.622Z,74.90
2023-04-22T14:29:25.420Z,75.20
2023-04-22T14:31:52.222Z,75.10
2023-04-22T14:34:18.906Z,75.20
2023-04-22T14:36:45.843Z,75.20
2023-04-22T14:39:12.632Z,75.20
2023-04-22T14:41:39.682Z,75.20
2023-04-22T14:44:06.576Z,75.30
2023-04-22T14:46:39.421Z,75.30
2023-04-22T14:49:06.370Z,75.40
2023-04-22T14:51:33.872Z,75.70
2023-04-22T14:54:00.788Z,75.80
2023-04-22T14:56:27.675Z,75.90
2023-04-22T14:58:54.496Z,76.10
2023-04-22T15:01:22.973Z,76.30
2023-04-22T15:03:51.564Z,76.50
2023-04-22T15:06:18.524Z,76.70
2023-04-22T15:08:45.933Z,76.90
2023-04-22T15:11:12.684Z,77.00
2023-04-22T15:13:39.466Z,77.20
2023-04-22T15:16:09.482Z,77.40
2023-04-22T15:18:36.465Z,77.60
2023-04-22T15:21:05.782Z,77.50
2023-04-22T15:23:32.546Z,77.70
2023-04-22T15:25:59.489Z,77.70
2023-04-22T15:28:26.536Z,78.00
2023-04-22T15:30:55.292Z,78.00
2023-04-22T15:33:22.141Z,78.00
2023-04-22T15:35:50.413Z,78.30
2023-04-22T15:38:17.480Z,78.30
2023-04-22T15:40:51.752Z,78.50
2023-04-22T15:43:18.552Z,78.60
2023-04-22T15:45:51.229Z,78.60
2023-04-22T15:48:20.750Z,78.60
2023-04-22T15:50:47.524Z,78.60
2023-04-22T15:53:14.713Z,78.70
2023-04-22T15:55:41.460Z,78.60
2023-04-22T15:58:08.219Z,78.70
2023-04-22T16:00:35.075Z,78.70
2023-04-22T16:03:02.177Z,78.70
2023-04-22T16:05:30.587Z,78.60
2023-04-22T16:07:57.369Z,78.70
2023-04-22T16:10:26.329Z,78.80
2023-04-22T16:12:53.184Z,79.00
2023-04-22T16:15:20.176Z,79.10
2023-04-22T16:17:46.931Z,79.10
2023-04-22T16:20:13.718Z,79.20
2023-04-22T16:22:43.491Z,79.20
2023-04-22T16:25:10.332Z,79.40
2023-04-22T16:27:37.055Z,79.50
2023-04-22T16:30:04.433Z,79.40
2023-04-22T16:32:31.483Z,79.50
2023-04-22T16:34:58.271Z,79.50
2023-04-22T16:37:26.859Z,79.30
2023-04-22T16:39:53.621Z,79.40
2023-04-22T16:42:20.430Z,79.60
2023-04-22T16:44:47.262Z,79.70
2023-04-22T16:47:14.034Z,79.70
2023-04-22T16:49:43.233Z,79.70
2023-04-22T16:52:10.656Z,79.70
2023-04-22T16:54:37.473Z,79.70
2023-04-22T16:57:04.982Z,79.70
2023-04-22T16:59:32.027Z,79.70
2023-04-22T17:01:59.017Z,79.70
2023-04-22T17:04:26.402Z,79.70
2023-04-22T17:06:53.500Z,79.70
2023-04-22T17:09:22.427Z,79.60
2023-04-22T17:11:49.940Z,79.60
2023-04-22T17:14:16.785Z,79.60
2023-04-22T17:16:44.568Z,79.70
2023-04-22T17:19:11.766Z,79.70
2023-04-22T17:21:40.048Z,79.80
2023-04-22T17:24:08.043Z,79.70
2023-04-22T17:26:34.949Z,79.70
2023-04-22T17:29:03.371Z,79.70
2023-04-22T17:31:31.182Z,79.60
2023-04-22T17:33:58.160Z,79.60
2023-04-22T17:36:25.818Z,79.50
2023-04-22T17:38:52.574Z,79.50
2023-04-22T17:41:19.517Z,79.50
2023-04-22T17:43:46.506Z,79.40
2023-04-22T17:46:13.805Z,79.50
2023-04-22T17:48:41.944Z,79.50
2023-04-22T17:51:09.941Z,79.50
2023-04-22T17:53:37.779Z,79.50
2023-04-22T17:56:04.739Z,79.50
2023-04-22T17:58:31.574Z,79.50
2023-04-22T18:00:58.687Z,79.70
2023-04-22T18:03:26.173Z,79.70
2023-04-22T18:05:53.354Z,79.70
2023-04-22T18:08:20.104Z,79.80
2023-04-22T18:10:46.785Z,79.80
2023-04-22T18:13:13.684Z,79.80
2023-04-22T18:15:40.499Z,79.90
2023-04-22T18:18:07.469Z,79.70
2023-04-22T18:20:34.503Z,79.70
2023-04-22T18:23:01.579Z,79.90
2023-04-22T18:25:28.588Z,79.90
2023-04-22T18:27:57.913Z,79.90
2023-04-22T18:30:25.243Z,79.80
2023-04-22T18:32:52.452Z,80.00
2023-04-22T18:35:20.171Z,80.70
2023-04-22T18:37:47.710Z,79.80
2023-04-22T18:40:14.657Z,79.80
2023-04-22T18:42:44.834Z,79.90
2023-04-22T18:45:12.459Z,79.90
2023-04-22T18:47:39.445Z,79.90
2023-04-22T18:50:06.997Z,79.80
2023-04-22T18:52:34.307Z,79.80
2023-04-22T18:55:01.168Z,79.90
2023-04-22T18:57:27.871Z,79.80
2023-04-22T18:59:55.106Z,79.80
2023-04-22T19:02:22.192Z,79.80
2023-04-22T19:04:49.304Z,79.80
2023-04-22T19:07:16.230Z,79.90
2023-04-22T19:09:43.019Z,79.80
2023-04-22T19:12:16.530Z,80.00
2023-04-22T19:14:43.646Z,80.00
2023-04-22T19:17:11.043Z,79.90
2023-04-22T19:19:37.800Z,80.00
2023-04-22T19:22:04.946Z,80.00
2023-04-22T19:24:33.539Z,80.00
2023-04-22T19:27:02.426Z,80.00
2023-04-22T19:29:29.863Z,80.80
2023-04-22T19:32:00.070Z,80.00
2023-04-22T19:34:27.420Z,80.00
2023-04-22T19:36:54.562Z,80.00
2023-04-22T19:39:22.133Z,80.00
2023-04-22T19:41:49.055Z,80.10
2023-04-22T19:44:16.018Z,80.10
2023-04-22T19:46:42.775Z,80.20
2023-04-22T19:49:10.022Z,80.30
2023-04-22T19:51:38.694Z,80.20
2023-04-22T19:54:07.501Z,80.20
2023-04-22T19:56:34.726Z,80.20
2023-04-22T19:59:02.059Z,80.30
2023-04-22T20:01:29.357Z,80.20
2023-04-22T20:03:56.720Z,80.30
2023-04-22T20:06:23.987Z,80.30
2023-04-22T20:08:53.602Z,80.40
2023-04-22T20:11:26.014Z,80.40
2023-04-22T20:13:53.322Z,80.50
2023-04-22T20:16:23.468Z,80.60
2023-04-22T20:18:50.973Z,80.50
2023-04-22T20:21:19.774Z,80.50
2023-04-22T20:23:47.826Z,80.60
2023-04-22T20:26:18.877Z,80.70
2023-04-22T20:28:51.980Z,80.70
2023-04-22T20:31:22.564Z,80.60
2023-04-22T20:33:50.823Z,80.60
2023-04-22T20:36:22.425Z,80.60
2023-04-22T20:38:51.082Z,80.70
2023-04-22T20:41:18.927Z,80.70
2023-04-22T20:43:49.015Z,80.60
2023-04-22T20:46:16.096Z,80.70
2023-04-22T20:48:42.971Z,80.70
2023-04-22T20:51:09.878Z,80.70
2023-04-22T20:53:36.830Z,80.70
2023-04-22T20:56:05.113Z,80.80
2023-04-22T20:58:33.294Z,80.80
2023-04-22T21:01:01.214Z,80.90
2023-04-22T21:03:29.399Z,80.90
2023-04-22T21:05:58.477Z,81.00
2023-04-22T21:08:26.061Z,81.10
2023-04-22T21:10:55.134Z,81.00
2023-04-22T21:13:22.946Z,81.20
2023-04-22T21:16:03.194Z,81.20
2023-04-22T21:18:32.728Z,81.20
2023-04-22T21:21:02.659Z,81.30
2023-04-22T21:23:30.420Z,81.30
2023-04-22T21:25:59.632Z,81.30
2023-04-22T21:28:27.234Z,81.40
2023-04-22T21:30:54.497Z,81.50
2023-04-22T21:33:21.287Z,81.50
2023-04-22T21:35:48.387Z,81.60
2023-04-22T21:38:16.436Z,81.70
2023-04-22T21:40:43.150Z,81.70
2023-04-22T21:43:09.948Z,81.80
2023-04-22T21:45:36.991Z,81.80
2023-04-22T21:48:04.100Z,81.80
2023-04-22T21:50:31.995Z,81.90
2023-04-22T21:52:59.585Z,82.00
2023-04-22T21:55:26.327Z,82.10
2023-04-22T21:57:55.509Z,82.20
2023-04-22T22:00:25.136Z,83.30
2023-04-22T22:02:53.332Z,83.30
2023-04-22T22:05:20.805Z,83.40
2023-04-22T22:07:50.578Z,83.40
2023-04-22T22:10:24.573Z,83.60
2023-04-22T22:12:51.494Z,83.60
2023-04-22T22:15:18.526Z,83.60
2023-04-22T22:17:45.885Z,83.70
2023-04-22T22:20:14.601Z,83.70
2023-04-22T22:22:42.869Z,83.80
2023-04-22T22:25:12.523Z,83.90
2023-04-22T22:27:41.143Z,83.90
2023-04-22T22:30:09.003Z,84.00
2023-04-22T22:32:36.420Z,84.00
2023-04-22T22:35:03.477Z,84.00
2023-04-22T22:37:30.371Z,84.10
2023-04-22T22:39:57.316Z,84.10
2023-04-22T22:42:24.249Z,84.10
2023-04-22T22:44:51.071Z,84.20
2023-04-22T22:47:18.869Z,84.30
2023-04-22T22:49:46.048Z,84.20
2023-04-22T22:52:13.241Z,84.30
2023-04-22T22:54:41.067Z,84.30
2023-04-22T22:57:08.631Z,84.40
2023-04-22T22:59:36.860Z,84.40
2023-04-22T23:02:07.134Z,84.50
2023-04-22T23:04:36.929Z,84.60
2023-04-22T23:07:06.950Z,84.60
2023-04-22T23:09:33.772Z,84.70
2023-04-22T23:12:00.901Z,84.70
2023-04-22T23:14:28.150Z,84.80
2023-04-22T23:16:55.247Z,84.70
2023-04-22T23:19:22.724Z,84.80
2023-04-22T23:21:50.004Z,84.80
2023-04-22T23:24:17.339Z,84.80
2023-04-22T23:26:44.459Z,84.90
2023-04-22T23:29:11.752Z,85.00
2023-04-22T23:31:41.981Z,85.00
2023-04-22T23:34:09.472Z,85.10
2023-04-22T23:36:37.420Z,85.00
2023-04-22T23:39:06.889Z,85.20
2023-04-22T23:41:34.001Z,85.20
2023-04-22T23:44:01.002Z,85.20
2023-04-22T23:46:27.797Z,85.20
2023-04-22T23:48:54.939Z,85.20
2023-04-22T23:51:28.354Z,85.20
2023-04-22T23:53:55.323Z,85.20
2023-04-22T23:56:23.107Z,85.20
2023-04-22T23:58:51.075Z,85.30
